sensor_id;sensor_type;location;lat;lon;timestamp;pressure;altitude;pressure_sealevel;temperature;humidity
76011;BME280;64701;43.536;1.478;2023-10-08T00:00:23;100226.53;;;16.74;42.16
76011;BME280;64701;43.536;1.478;2023-10-08T00:03:10;100234.81;;;16.73;42.16
76011;BME280;64701;43.536;1.478;2023-10-08T00:05:36;100235.03;;;16.65;45.19
76011;BME280;64701;43.536;1.478;2023-10-08T00:08:01;100236.09;;;16.51;44.43
76011;BME280;64701;43.536;1.478;2023-10-08T00:10:27;100224.00;;;16.48;42.71
76011;BME280;64701;43.536;1.478;2023-10-08T00:12:54;100226.03;;;16.46;43.07
76011;BME280;64701;43.536;1.478;2023-10-08T00:15:20;100221.72;;;16.45;43.45
76011;BME280;64701;43.536;1.478;2023-10-08T00:17:46;100220.97;;;16.38;43.40
76011;BME280;64701;43.536;1.478;2023-10-08T00:20:14;100225.69;;;16.36;42.67
76011;BME280;64701;43.536;1.478;2023-10-08T00:22:50;100221.81;;;16.32;43.94
76011;BME280;64701;43.536;1.478;2023-10-08T00:25:15;100226.56;;;16.23;45.16
76011;BME280;64701;43.536;1.478;2023-10-08T00:27:41;100225.94;;;16.21;44.32
76011;BME280;64701;43.536;1.478;2023-10-08T00:30:06;100227.59;;;16.16;44.55
76011;BME280;64701;43.536;1.478;2023-10-08T00:32:42;100223.34;;;16.08;45.17
76011;BME280;64701;43.536;1.478;2023-10-08T00:35:08;100217.56;;;16.05;44.87
76011;BME280;64701;43.536;1.478;2023-10-08T00:37:38;100221.06;;;15.99;46.17
76011;BME280;64701;43.536;1.478;2023-10-08T00:40:05;100216.56;;;15.92;46.40
76011;BME280;64701;43.536;1.478;2023-10-08T00:42:36;100211.66;;;15.89;46.31
76011;BME280;64701;43.536;1.478;2023-10-08T00:45:02;100215.56;;;15.87;46.38
76011;BME280;64701;43.536;1.478;2023-10-08T00:47:30;100217.41;;;15.86;47.82
76011;BME280;64701;43.536;1.478;2023-10-08T00:49:59;100206.72;;;15.86;48.99
76011;BME280;64701;43.536;1.478;2023-10-08T00:52:31;100210.84;;;15.89;47.39
76011;BME280;64701;43.536;1.478;2023-10-08T00:55:13;100204.47;;;15.90;49.17
76011;BME280;64701;43.536;1.478;2023-10-08T00:57:55;100203.63;;;15.96;46.64
76011;BME280;64701;43.536;1.478;2023-10-08T01:00:22;100206.50;;;16.01;47.44
76011;BME280;64701;43.536;1.478;2023-10-08T01:02:56;100203.63;;;16.03;46.13
76011;BME280;64701;43.536;1.478;2023-10-08T01:05:26;100205.03;;;16.05;45.91
76011;BME280;64701;43.536;1.478;2023-10-08T01:08:07;100207.50;;;16.07;46.73
76011;BME280;64701;43.536;1.478;2023-10-08T01:10:32;100212.69;;;15.95;48.14
76011;BME280;64701;43.536;1.478;2023-10-08T01:12:58;100204.91;;;15.74;49.53
76011;BME280;64701;43.536;1.478;2023-10-08T01:15:26;100204.72;;;15.62;49.37
76011;BME280;64701;43.536;1.478;2023-10-08T01:17:55;100199.59;;;15.61;46.81
76011;BME280;64701;43.536;1.478;2023-10-08T01:20:25;100202.47;;;15.59;47.30
76011;BME280;64701;43.536;1.478;2023-10-08T01:23:05;100190.16;;;15.58;47.47
76011;BME280;64701;43.536;1.478;2023-10-08T01:25:38;100193.44;;;15.60;46.17
76011;BME280;64701;43.536;1.478;2023-10-08T01:28:05;100198.59;;;15.55;48.08
76011;BME280;64701;43.536;1.478;2023-10-08T01:30:41;100191.59;;;15.54;46.60
76011;BME280;64701;43.536;1.478;2023-10-08T01:33:09;100191.97;;;15.51;47.28
76011;BME280;64701;43.536;1.478;2023-10-08T01:35:40;100190.31;;;15.50;47.50
76011;BME280;64701;43.536;1.478;2023-10-08T01:38:05;100182.75;;;15.47;47.27
76011;BME280;64701;43.536;1.478;2023-10-08T01:40:31;100183.13;;;15.44;47.08
76011;BME280;64701;43.536;1.478;2023-10-08T01:42:57;100187.47;;;15.38;48.06
76011;BME280;64701;43.536;1.478;2023-10-08T01:45:25;100188.28;;;15.32;48.29
76011;BME280;64701;43.536;1.478;2023-10-08T01:47:51;100183.56;;;15.28;48.58
76011;BME280;64701;43.536;1.478;2023-10-08T01:50:17;100190.16;;;15.19;49.56
76011;BME280;64701;43.536;1.478;2023-10-08T01:52:54;100187.69;;;15.10;49.04
76011;BME280;64701;43.536;1.478;2023-10-08T01:55:20;100173.94;;;15.07;50.91
76011;BME280;64701;43.536;1.478;2023-10-08T01:57:47;100181.72;;;15.02;49.36
76011;BME280;64701;43.536;1.478;2023-10-08T02:00:12;100185.19;;;15.02;48.43
76011;BME280;64701;43.536;1.478;2023-10-08T02:02:40;100185.63;;;14.99;49.85
76011;BME280;64701;43.536;1.478;2023-10-08T02:05:06;100191.34;;;14.96;49.59
76011;BME280;64701;43.536;1.478;2023-10-08T02:07:32;100187.25;;;14.94;49.82
76011;BME280;64701;43.536;1.478;2023-10-08T02:09:57;100190.13;;;14.92;49.84
76011;BME280;64701;43.536;1.478;2023-10-08T02:12:22;100184.16;;;14.90;50.28
76011;BME280;64701;43.536;1.478;2023-10-08T02:14:48;100191.34;;;14.83;51.86
76011;BME280;64701;43.536;1.478;2023-10-08T02:17:14;100186.22;;;14.82;50.81
76011;BME280;64701;43.536;1.478;2023-10-08T02:19:39;100182.72;;;14.81;49.89
76011;BME280;64701;43.536;1.478;2023-10-08T02:22:06;100191.13;;;14.78;51.65
76011;BME280;64701;43.536;1.478;2023-10-08T02:24:34;100201.78;;;14.78;50.42
76011;BME280;64701;43.536;1.478;2023-10-08T02:27:00;100202.81;;;14.77;50.76
76011;BME280;64701;43.536;1.478;2023-10-08T02:29:26;100193.19;;;14.76;50.40
76011;BME280;64701;43.536;1.478;2023-10-08T02:31:51;100194.59;;;14.65;53.69
76011;BME280;64701;43.536;1.478;2023-10-08T02:34:19;100189.44;;;14.57;54.04
76011;BME280;64701;43.536;1.478;2023-10-08T02:36:44;100196.19;;;14.47;56.03
76011;BME280;64701;43.536;1.478;2023-10-08T02:39:12;100191.66;;;14.41;52.56
76011;BME280;64701;43.536;1.478;2023-10-08T02:41:47;100190.78;;;14.34;54.77
76011;BME280;64701;43.536;1.478;2023-10-08T02:44:13;100189.28;;;14.24;55.70
76011;BME280;64701;43.536;1.478;2023-10-08T02:46:45;100202.16;;;14.14;56.39
76011;BME280;64701;43.536;1.478;2023-10-08T02:49:12;100193.34;;;14.14;55.95
76011;BME280;64701;43.536;1.478;2023-10-08T02:51:40;100190.88;;;14.12;57.82
76011;BME280;64701;43.536;1.478;2023-10-08T02:54:09;100183.91;;;14.05;56.95
76011;BME280;64701;43.536;1.478;2023-10-08T02:56:42;100186.91;;;13.95;58.23
76011;BME280;64701;43.536;1.478;2023-10-08T02:59:09;100181.97;;;13.92;56.26
76011;BME280;64701;43.536;1.478;2023-10-08T03:01:37;100179.50;;;13.90;57.75
76011;BME280;64701;43.536;1.478;2023-10-08T03:04:05;100178.31;;;13.93;54.65
76011;BME280;64701;43.536;1.478;2023-10-08T03:06:42;100174.38;;;13.89;58.63
76011;BME280;64701;43.536;1.478;2023-10-08T03:09:07;100180.25;;;13.78;60.36
76011;BME280;64701;43.536;1.478;2023-10-08T03:11:33;100173.69;;;13.74;58.70
76011;BME280;64701;43.536;1.478;2023-10-08T03:14:00;100177.00;;;13.76;56.36
76011;BME280;64701;43.536;1.478;2023-10-08T03:16:26;100171.66;;;13.76;56.53
76011;BME280;64701;43.536;1.478;2023-10-08T03:19:00;100177.59;;;13.78;57.03
76011;BME280;64701;43.536;1.478;2023-10-08T03:21:25;100176.38;;;13.80;55.70
76011;BME280;64701;43.536;1.478;2023-10-08T03:24:03;100171.69;;;13.82;55.69
76011;BME280;64701;43.536;1.478;2023-10-08T03:26:37;100183.16;;;13.83;57.04
76011;BME280;64701;43.536;1.478;2023-10-08T03:29:04;100176.81;;;13.84;55.58
76011;BME280;64701;43.536;1.478;2023-10-08T03:31:43;100181.31;;;13.83;57.69
76011;BME280;64701;43.536;1.478;2023-10-08T03:34:14;100183.56;;;13.80;57.98
76011;BME280;64701;43.536;1.478;2023-10-08T03:36:40;100176.59;;;13.79;56.43
76011;BME280;64701;43.536;1.478;2023-10-08T03:39:15;100176.59;;;13.79;56.52
76011;BME280;64701;43.536;1.478;2023-10-08T03:41:41;100183.56;;;13.80;56.41
76011;BME280;64701;43.536;1.478;2023-10-08T03:44:07;100182.69;;;13.73;59.20
76011;BME280;64701;43.536;1.478;2023-10-08T03:46:41;100185.53;;;13.71;56.73
76011;BME280;64701;43.536;1.478;2023-10-08T03:49:14;100185.53;;;13.71;59.34
76011;BME280;64701;43.536;1.478;2023-10-08T03:51:46;100184.28;;;13.67;58.58
76011;BME280;64701;43.536;1.478;2023-10-08T03:54:11;100200.66;;;13.64;58.73
76011;BME280;64701;43.536;1.478;2023-10-08T03:56:40;100205.16;;;13.64;58.90
76011;BME280;64701;43.536;1.478;2023-10-08T03:59:10;100206.34;;;13.61;59.24
76011;BME280;64701;43.536;1.478;2023-10-08T04:01:40;100210.84;;;13.61;58.57
76011;BME280;64701;43.536;1.478;2023-10-08T04:04:06;100204.72;;;13.60;59.46
76011;BME280;64701;43.536;1.478;2023-10-08T04:06:31;100203.47;;;13.56;58.24
76011;BME280;64701;43.536;1.478;2023-10-08T04:09:03;100211.22;;;13.51;59.68
76011;BME280;64701;43.536;1.478;2023-10-08T04:11:38;100212.34;;;13.42;61.04
76011;BME280;64701;43.536;1.478;2023-10-08T04:14:24;100212.28;;;13.35;61.83
76011;BME280;64701;43.536;1.478;2023-10-08T04:16:50;100212.94;;;13.37;60.77
76011;BME280;64701;43.536;1.478;2023-10-08T04:19:17;100216.03;;;13.41;59.57
76011;BME280;64701;43.536;1.478;2023-10-08T04:21:43;100207.84;;;13.42;59.24
76011;BME280;64701;43.536;1.478;2023-10-08T04:24:08;100210.97;;;13.46;59.13
76011;BME280;64701;43.536;1.478;2023-10-08T04:26:34;100216.72;;;13.49;57.65
76011;BME280;64701;43.536;1.478;2023-10-08T04:29:00;100215.31;;;13.54;58.13
76011;BME280;64701;43.536;1.478;2023-10-08T04:31:32;100215.69;;;13.51;58.83
76011;BME280;64701;43.536;1.478;2023-10-08T04:34:08;100212.84;;;13.52;57.95
76011;BME280;64701;43.536;1.478;2023-10-08T04:36:47;100214.28;;;13.55;58.99
76011;BME280;64701;43.536;1.478;2023-10-08T04:39:26;100215.31;;;13.54;58.20
76011;BME280;64701;43.536;1.478;2023-10-08T04:41:57;100212.63;;;13.54;58.29
76011;BME280;64701;43.536;1.478;2023-10-08T04:44:26;100218.97;;;13.53;60.31
76011;BME280;64701;43.536;1.478;2023-10-08T04:46:52;100218.38;;;13.51;59.29
76011;BME280;64701;43.536;1.478;2023-10-08T04:49:18;100220.19;;;13.50;58.66
76011;BME280;64701;43.536;1.478;2023-10-08T04:51:54;100222.84;;;13.50;58.56
76011;BME280;64701;43.536;1.478;2023-10-08T04:54:22;100221.78;;;13.44;60.70
76011;BME280;64701;43.536;1.478;2023-10-08T04:56:47;100221.09;;;13.36;62.81
76011;BME280;64701;43.536;1.478;2023-10-08T04:59:14;100218.00;;;13.32;61.34
76011;BME280;64701;43.536;1.478;2023-10-08T05:01:39;100215.72;;;13.29;62.46
76011;BME280;64701;43.536;1.478;2023-10-08T05:04:21;100216.38;;;13.31;59.00
76011;BME280;64701;43.536;1.478;2023-10-08T05:06:57;100219.66;;;13.33;59.02
76011;BME280;64701;43.536;1.478;2023-10-08T05:09:41;100217.63;;;13.35;59.80
76011;BME280;64701;43.536;1.478;2023-10-08T05:12:25;100211.69;;;13.33;59.03
76011;BME280;64701;43.536;1.478;2023-10-08T05:14:59;100214.34;;;13.33;57.78
76011;BME280;64701;43.536;1.478;2023-10-08T05:17:37;100216.38;;;13.31;58.06
76011;BME280;64701;43.536;1.478;2023-10-08T05:20:22;100210.16;;;13.24;58.94
76011;BME280;64701;43.536;1.478;2023-10-08T05:23:07;100211.81;;;13.25;58.76
76011;BME280;64701;43.536;1.478;2023-10-08T05:26:02;100212.41;;;13.21;60.57
76011;BME280;64701;43.536;1.478;2023-10-08T05:28:34;100221.97;;;13.15;59.14
76011;BME280;64701;43.536;1.478;2023-10-08T05:31:12;100220.66;;;13.11;60.56
76011;BME280;64701;43.536;1.478;2023-10-08T05:33:41;100223.50;;;13.09;59.88
76011;BME280;64701;43.536;1.478;2023-10-08T05:36:24;100225.34;;;13.09;59.15
76011;BME280;64701;43.536;1.478;2023-10-08T05:39:01;100228.78;;;13.03;63.05
76011;BME280;64701;43.536;1.478;2023-10-08T05:41:29;100232.63;;;13.00;60.69
76011;BME280;64701;43.536;1.478;2023-10-08T05:44:05;100237.09;;;13.00;62.04
76011;BME280;64701;43.536;1.478;2023-10-08T05:46:46;100237.50;;;12.97;60.84
76011;BME280;64701;43.536;1.478;2023-10-08T05:49:16;100243.81;;;12.96;60.39
76011;BME280;64701;43.536;1.478;2023-10-08T05:52:01;100248.13;;;12.97;59.61
76011;BME280;64701;43.536;1.478;2023-10-08T05:54:27;100246.31;;;12.97;59.18
76011;BME280;64701;43.536;1.478;2023-10-08T05:56:58;100249.56;;;12.99;58.91
76011;BME280;64701;43.536;1.478;2023-10-08T05:59:39;100248.75;;;12.99;59.75
76011;BME280;64701;43.536;1.478;2023-10-08T06:05:06;100245.47;;;12.97;59.60
76011;BME280;64701;43.536;1.478;2023-10-08T06:07:41;100247.13;;;12.98;59.79
76011;BME280;64701;43.536;1.478;2023-10-08T06:13:14;100254.06;;;12.99;60.17
76011;BME280;64701;43.536;1.478;2023-10-08T06:16:05;100259.38;;;12.99;61.10
76011;BME280;64701;43.536;1.478;2023-10-08T06:18:33;100271.50;;;13.01;60.48
76011;BME280;64701;43.536;1.478;2023-10-08T06:21:00;100273.31;;;13.01;61.52
76011;BME280;64701;43.536;1.478;2023-10-08T06:23:26;100276.63;;;13.03;60.25
76011;BME280;64701;43.536;1.478;2023-10-08T06:25:53;100281.13;;;13.02;60.77
76011;BME280;64701;43.536;1.478;2023-10-08T06:28:39;100279.53;;;13.08;59.78
76011;BME280;64701;43.536;1.478;2023-10-08T06:31:05;100277.69;;;13.08;62.16
76011;BME280;64701;43.536;1.478;2023-10-08T06:33:40;100276.69;;;13.09;61.22
76011;BME280;64701;43.536;1.478;2023-10-08T06:36:05;100275.69;;;13.11;62.13
76011;BME280;64701;43.536;1.478;2023-10-08T06:38:42;100282.19;;;13.08;64.05
76011;BME280;64701;43.536;1.478;2023-10-08T06:41:09;100283.84;;;13.09;63.83
76011;BME280;64701;43.536;1.478;2023-10-08T06:43:43;100282.84;;;13.10;65.45
76011;BME280;64701;43.536;1.478;2023-10-08T06:46:14;100289.25;;;13.16;64.62
76011;BME280;64701;43.536;1.478;2023-10-08T06:48:41;100280.91;;;13.19;64.50
76011;BME280;64701;43.536;1.478;2023-10-08T06:51:07;100283.44;;;13.27;63.42
76011;BME280;64701;43.536;1.478;2023-10-08T06:53:38;100288.44;;;13.36;63.54
76011;BME280;64701;43.536;1.478;2023-10-08T06:56:03;100288.31;;;13.44;63.73
76011;BME280;64701;43.536;1.478;2023-10-08T06:58:29;100287.34;;;13.52;64.07
76011;BME280;64701;43.536;1.478;2023-10-08T07:00:57;100291.69;;;13.60;63.24
76011;BME280;64701;43.536;1.478;2023-10-08T07:03:24;100285.41;;;13.67;62.88
76011;BME280;64701;43.536;1.478;2023-10-08T07:05:50;100288.78;;;13.76;64.22
76011;BME280;64701;43.536;1.478;2023-10-08T07:08:25;100293.31;;;13.82;66.11
76011;BME280;64701;43.536;1.478;2023-10-08T07:10:52;100292.97;;;13.92;64.08
76011;BME280;64701;43.536;1.478;2023-10-08T07:13:18;100294.66;;;13.99;64.00
76011;BME280;64701;43.536;1.478;2023-10-08T07:15:46;100298.19;;;14.06;66.13
76011;BME280;64701;43.536;1.478;2023-10-08T07:18:12;100300.06;;;14.12;66.15
76011;BME280;64701;43.536;1.478;2023-10-08T07:20:46;100304.59;;;14.18;67.42
76011;BME280;64701;43.536;1.478;2023-10-08T07:23:18;100303.03;;;14.30;66.79
76011;BME280;64701;43.536;1.478;2023-10-08T07:25:51;100308.88;;;14.41;65.47
76011;BME280;64701;43.536;1.478;2023-10-08T07:28:17;100314.66;;;14.51;66.48
76011;BME280;64701;43.536;1.478;2023-10-08T07:30:44;100306.28;;;14.60;64.68
76011;BME280;64701;43.536;1.478;2023-10-08T07:33:10;100303.28;;;14.70;64.68
76011;BME280;64701;43.536;1.478;2023-10-08T07:35:43;100313.16;;;14.76;65.59
76011;BME280;64701;43.536;1.478;2023-10-08T07:38:16;100306.78;;;14.84;65.75
76011;BME280;64701;43.536;1.478;2023-10-08T07:40:41;100318.94;;;14.93;66.18
76011;BME280;64701;43.536;1.478;2023-10-08T07:43:07;100315.06;;;14.95;66.54
76011;BME280;64701;43.536;1.478;2023-10-08T07:45:33;100317.53;;;15.03;66.04
76011;BME280;64701;43.536;1.478;2023-10-08T07:48:00;100322.88;;;15.10;66.76
76011;BME280;64701;43.536;1.478;2023-10-08T07:50:26;100327.81;;;15.20;66.76
76011;BME280;64701;43.536;1.478;2023-10-08T07:52:54;100325.19;;;15.26;66.73
76011;BME280;64701;43.536;1.478;2023-10-08T07:55:21;100326.44;;;15.37;66.82
76011;BME280;64701;43.536;1.478;2023-10-08T07:57:47;100330.16;;;15.49;66.32
76011;BME280;64701;43.536;1.478;2023-10-08T08:00:13;100329.59;;;15.60;67.00
76011;BME280;64701;43.536;1.478;2023-10-08T08:02:49;100325.28;;;15.72;66.94
76011;BME280;64701;43.536;1.478;2023-10-08T08:05:14;100334.31;;;15.84;68.71
76011;BME280;64701;43.536;1.478;2023-10-08T08:07:42;100335.13;;;15.98;68.71
76011;BME280;64701;43.536;1.478;2023-10-08T08:10:11;100328.53;;;16.14;66.63
76011;BME280;64701;43.536;1.478;2023-10-08T08:12:36;100335.28;;;16.29;67.73
76011;BME280;64701;43.536;1.478;2023-10-08T08:15:03;100337.09;;;16.42;68.94
76011;BME280;64701;43.536;1.478;2023-10-08T08:17:40;100334.41;;;16.62;68.70
76011;BME280;64701;43.536;1.478;2023-10-08T08:20:05;100332.09;;;16.79;68.93
76011;BME280;64701;43.536;1.478;2023-10-08T08:22:42;100340.25;;;16.97;67.92
76011;BME280;64701;43.536;1.478;2023-10-08T08:25:12;100337.50;;;17.10;67.20
76011;BME280;64701;43.536;1.478;2023-10-08T08:27:43;100340.91;;;17.24;66.69
76011;BME280;64701;43.536;1.478;2023-10-08T08:30:14;100337.94;;;17.38;66.68
76011;BME280;64701;43.536;1.478;2023-10-08T08:32:44;100329.59;;;17.53;66.11
76011;BME280;64701;43.536;1.478;2023-10-08T08:35:10;100328.28;;;17.69;65.87
76011;BME280;64701;43.536;1.478;2023-10-08T08:37:35;100329.22;;;17.81;65.09
76011;BME280;64701;43.536;1.478;2023-10-08T08:40:04;100335.06;;;17.96;65.34
76011;BME280;64701;43.536;1.478;2023-10-08T08:42:47;100330.19;;;18.11;64.86
76011;BME280;64701;43.536;1.478;2023-10-08T08:45:13;100327.34;;;18.24;63.66
76011;BME280;64701;43.536;1.478;2023-10-08T08:47:40;100330.13;;;18.36;63.23
76011;BME280;64701;43.536;1.478;2023-10-08T08:50:06;100325.22;;;18.51;62.16
76011;BME280;64701;43.536;1.478;2023-10-08T08:52:36;100324.03;;;18.65;60.79
76011;BME280;64701;43.536;1.478;2023-10-08T08:55:06;100325.53;;;18.80;59.61
76011;BME280;64701;43.536;1.478;2023-10-08T08:57:38;100328.41;;;18.96;58.79
76011;BME280;64701;43.536;1.478;2023-10-08T09:00:05;100319.75;;;19.12;56.76
76011;BME280;64701;43.536;1.478;2023-10-08T09:02:38;100322.94;;;19.33;55.42
76011;BME280;64701;43.536;1.478;2023-10-08T09:05:04;100318.72;;;19.55;54.35
76011;BME280;64701;43.536;1.478;2023-10-08T09:07:57;100325.31;;;19.82;52.64
76011;BME280;64701;43.536;1.478;2023-10-08T09:10:24;100321.59;;;20.07;50.04
76011;BME280;64701;43.536;1.478;2023-10-08T09:12:53;100318.53;;;20.38;49.01
76011;BME280;64701;43.536;1.478;2023-10-08T09:15:19;100322.69;;;20.69;47.63
76011;BME280;64701;43.536;1.478;2023-10-08T09:17:44;100309.69;;;21.06;45.96
76011;BME280;64701;43.536;1.478;2023-10-08T09:20:11;100316.03;;;21.56;44.31
76011;BME280;64701;43.536;1.478;2023-10-08T09:22:37;100319.03;;;22.27;43.32
76011;BME280;64701;43.536;1.478;2023-10-08T09:25:03;100321.81;;;22.97;41.50
76011;BME280;64701;43.536;1.478;2023-10-08T09:27:32;100316.03;;;23.64;40.43
76011;BME280;64701;43.536;1.478;2023-10-08T09:29:57;100321.41;;;24.33;38.19
76011;BME280;64701;43.536;1.478;2023-10-08T09:32:24;100311.06;;;24.82;35.78
76011;BME280;64701;43.536;1.478;2023-10-08T09:34:50;100317.44;;;25.33;34.95
76011;BME280;64701;43.536;1.478;2023-10-08T09:37:16;100306.91;;;25.57;34.26
76011;BME280;64701;43.536;1.478;2023-10-08T09:39:42;100303.91;;;26.09;33.51
76011;BME280;64701;43.536;1.478;2023-10-08T09:42:07;100298.78;;;26.77;32.21
76011;BME280;64701;43.536;1.478;2023-10-08T09:44:36;100299.69;;;27.11;31.30
76011;BME280;64701;43.536;1.478;2023-10-08T09:47:03;100301.94;;;27.43;30.79
76011;BME280;64701;43.536;1.478;2023-10-08T09:51:58;100287.75;;;28.80;28.91
76011;BME280;64701;43.536;1.478;2023-10-08T09:54:27;100292.81;;;29.62;28.49
76011;BME280;64701;43.536;1.478;2023-10-08T09:56:56;100289.19;;;29.67;27.31
76011;BME280;64701;43.536;1.478;2023-10-08T09:59:24;100287.91;;;30.65;27.35
76011;BME280;64701;43.536;1.478;2023-10-08T10:01:51;100290.09;;;30.90;25.51
76011;BME280;64701;43.536;1.478;2023-10-08T10:04:24;100282.16;;;31.16;26.12
76011;BME280;64701;43.536;1.478;2023-10-08T10:06:50;100279.53;;;31.78;25.80
76011;BME280;64701;43.536;1.478;2023-10-08T10:09:22;100280.00;;;32.11;25.85
76011;BME280;64701;43.536;1.478;2023-10-08T10:11:48;100283.06;;;32.09;24.90
76011;BME280;64701;43.536;1.478;2023-10-08T10:14:15;100280.41;;;32.74;24.12
76011;BME280;64701;43.536;1.478;2023-10-08T10:16:40;100276.75;;;33.22;23.61
76011;BME280;64701;43.536;1.478;2023-10-08T10:19:10;100271.59;;;34.01;24.50
76011;BME280;64701;43.536;1.478;2023-10-08T10:21:40;100260.72;;;34.05;21.58
76011;BME280;64701;43.536;1.478;2023-10-08T10:24:12;100266.16;;;33.84;21.86
76011;BME280;64701;43.536;1.478;2023-10-08T10:26:46;100264.28;;;34.06;22.26
76011;BME280;64701;43.536;1.478;2023-10-08T10:29:18;100254.38;;;34.51;23.04
76011;BME280;64701;43.536;1.478;2023-10-08T10:31:50;100264.56;;;34.21;21.50
76011;BME280;64701;43.536;1.478;2023-10-08T10:34:22;100260.25;;;34.70;21.89
76011;BME280;64701;43.536;1.478;2023-10-08T10:36:48;100259.44;;;35.11;20.29
76011;BME280;64701;43.536;1.478;2023-10-08T10:39:18;100257.03;;;35.10;19.75
76011;BME280;64701;43.536;1.478;2023-10-08T10:41:52;100259.31;;;35.08;20.59
76011;BME280;64701;43.536;1.478;2023-10-08T10:44:21;100263.22;;;35.28;21.03
76011;BME280;64701;43.536;1.478;2023-10-08T10:46:46;100260.56;;;35.64;19.99
76011;BME280;64701;43.536;1.478;2023-10-08T10:49:37;100267.91;;;35.93;19.06
76011;BME280;64701;43.536;1.478;2023-10-08T10:52:13;100256.91;;;36.17;19.62
76011;BME280;64701;43.536;1.478;2023-10-08T10:54:43;100251.38;;;36.17;18.87
76011;BME280;64701;43.536;1.478;2023-10-08T10:57:15;100250.44;;;36.50;19.78
76011;BME280;64701;43.536;1.478;2023-10-08T10:59:43;100251.75;;;36.92;18.86
76011;BME280;64701;43.536;1.478;2023-10-08T11:02:18;100246.72;;;37.22;18.68
76011;BME280;64701;43.536;1.478;2023-10-08T11:04:55;100258.28;;;37.12;18.44
76011;BME280;64701;43.536;1.478;2023-10-08T11:07:26;100242.69;;;37.19;18.54
76011;BME280;64701;43.536;1.478;2023-10-08T11:09:52;100244.06;;;37.26;17.20
76011;BME280;64701;43.536;1.478;2023-10-08T11:12:20;100249.94;;;37.68;17.50
76011;BME280;64701;43.536;1.478;2023-10-08T11:14:48;100241.47;;;37.60;17.13
76011;BME280;64701;43.536;1.478;2023-10-08T11:17:17;100240.75;;;38.26;18.42
76011;BME280;64701;43.536;1.478;2023-10-08T11:19:45;100247.31;;;38.03;17.04
76011;BME280;64701;43.536;1.478;2023-10-08T11:22:12;100238.03;;;38.46;17.75
76011;BME280;64701;43.536;1.478;2023-10-08T11:24:41;100241.00;;;38.53;17.19
76011;BME280;64701;43.536;1.478;2023-10-08T11:27:08;100239.09;;;38.06;17.54
76011;BME280;64701;43.536;1.478;2023-10-08T11:29:49;100241.31;;;37.85;16.55
76011;BME280;64701;43.536;1.478;2023-10-08T11:32:22;100232.66;;;38.18;17.58
76011;BME280;64701;43.536;1.478;2023-10-08T11:34:59;100240.13;;;38.33;16.76
76011;BME280;64701;43.536;1.478;2023-10-08T11:37:26;100237.56;;;38.24;17.43
76011;BME280;64701;43.536;1.478;2023-10-08T11:39:52;100238.44;;;38.98;17.24
76011;BME280;64701;43.536;1.478;2023-10-08T11:42:18;100231.63;;;39.53;16.73
76011;BME280;64701;43.536;1.478;2023-10-08T11:45:05;100224.88;;;40.23;16.91
76011;BME280;64701;43.536;1.478;2023-10-08T11:47:49;100215.47;;;40.57;16.11
76011;BME280;64701;43.536;1.478;2023-10-08T11:50:20;100210.00;;;40.94;14.57
76011;BME280;64701;43.536;1.478;2023-10-08T11:52:51;100218.44;;;40.71;14.92
76011;BME280;64701;43.536;1.478;2023-10-08T11:55:16;100214.44;;;40.39;14.44
76011;BME280;64701;43.536;1.478;2023-10-08T11:57:47;100208.16;;;40.19;15.24
76011;BME280;64701;43.536;1.478;2023-10-08T12:00:14;100201.00;;;39.92;15.01
76011;BME280;64701;43.536;1.478;2023-10-08T12:02:50;100206.50;;;40.15;14.84
76011;BME280;64701;43.536;1.478;2023-10-08T12:05:19;100199.41;;;39.91;13.88
76011;BME280;64701;43.536;1.478;2023-10-08T12:07:47;100195.84;;;39.90;14.83
76011;BME280;64701;43.536;1.478;2023-10-08T12:10:13;100193.66;;;39.57;14.70
76011;BME280;64701;43.536;1.478;2023-10-08T12:12:39;100189.47;;;39.67;15.22
76011;BME280;64701;43.536;1.478;2023-10-08T12:15:04;100185.91;;;39.89;14.97
76011;BME280;64701;43.536;1.478;2023-10-08T12:17:32;100171.41;;;39.77;15.11
76011;BME280;64701;43.536;1.478;2023-10-08T12:20:05;100169.78;;;40.21;14.38
76011;BME280;64701;43.536;1.478;2023-10-08T12:22:47;100172.78;;;39.86;14.71
76011;BME280;64701;43.536;1.478;2023-10-08T12:25:13;100164.41;;;40.09;15.00
76011;BME280;64701;43.536;1.478;2023-10-08T12:27:39;100165.53;;;40.61;14.81
76011;BME280;64701;43.536;1.478;2023-10-08T12:30:04;100168.63;;;40.86;14.85
76011;BME280;64701;43.536;1.478;2023-10-08T12:32:35;100161.88;;;41.20;14.66
76011;BME280;64701;43.536;1.478;2023-10-08T12:35:02;100154.47;;;40.98;14.23
76011;BME280;64701;43.536;1.478;2023-10-08T12:37:28;100148.41;;;41.22;14.14
76011;BME280;64701;43.536;1.478;2023-10-08T12:39:53;100146.00;;;41.21;14.52
76011;BME280;64701;43.536;1.478;2023-10-08T12:42:36;100147.31;;;41.34;14.18
76011;BME280;64701;43.536;1.478;2023-10-08T12:45:04;100149.00;;;41.45;13.78
76011;BME280;64701;43.536;1.478;2023-10-08T12:47:37;100139.91;;;41.48;13.45
76011;BME280;64701;43.536;1.478;2023-10-08T12:50:02;100142.50;;;41.75;14.19
76011;BME280;64701;43.536;1.478;2023-10-08T12:52:32;100137.69;;;41.65;13.25
76011;BME280;64701;43.536;1.478;2023-10-08T12:54:59;100132.13;;;41.68;13.65
76011;BME280;64701;43.536;1.478;2023-10-08T12:57:28;100140.41;;;41.61;13.83
76011;BME280;64701;43.536;1.478;2023-10-08T12:59:58;100138.84;;;41.64;13.49
76011;BME280;64701;43.536;1.478;2023-10-08T13:02:24;100138.38;;;41.54;14.08
76011;BME280;64701;43.536;1.478;2023-10-08T13:04:53;100132.16;;;40.87;13.46
76011;BME280;64701;43.536;1.478;2023-10-08T13:07:20;100133.69;;;40.85;13.80
76011;BME280;64701;43.536;1.478;2023-10-08T13:09:47;100129.13;;;41.03;13.86
76011;BME280;64701;43.536;1.478;2023-10-08T13:12:12;100128.44;;;40.76;13.61